createdAt,value
2022-08-12T00:02:45.758Z,100562.06
2022-08-12T00:06:07.417Z,100570.41
2022-08-12T00:09:28.337Z,100572.69
2022-08-12T00:12:48.579Z,100562.00
2022-08-12T00:16:09.164Z,100565.38
2022-08-12T00:19:28.985Z,100567.41
2022-08-12T00:22:55.248Z,100564.31
2022-08-12T00:26:23.316Z,100562.38
2022-08-12T00:29:47.744Z,100566.78
2022-08-12T00:33:09.788Z,100566.28
2022-08-12T00:36:34.762Z,100564.78
2022-08-12T00:39:58.535Z,100564.66
2022-08-12T00:43:00.328Z,100567.50
2022-08-12T00:46:21.113Z,100565.06
2022-08-12T00:49:24.299Z,100573.00
2022-08-12T00:52:26.057Z,100573.38
2022-08-12T00:55:27.645Z,100572.31
2022-08-12T00:58:30.993Z,100566.81
2022-08-12T01:02:00.899Z,100567.28
2022-08-12T01:05:18.161Z,100574.19
2022-08-12T01:08:38.045Z,100572.44
2022-08-12T01:11:39.588Z,100569.28
2022-08-12T01:14:42.123Z,100562.88
2022-08-12T01:17:45.169Z,100572.69
2022-08-12T01:21:09.675Z,100567.16
2022-08-12T01:24:31.573Z,100569.66
2022-08-12T01:27:35.111Z,100570.34
2022-08-12T01:30:39.468Z,100566.97
2022-08-12T01:33:55.417Z,100562.72
2022-08-12T01:36:59.946Z,100567.50
2022-08-12T01:40:33.192Z,100564.09
2022-08-12T01:43:25.721Z,100561.81
2022-08-12T01:46:44.144Z,100565.19
2022-08-12T01:50:20.964Z,100555.41
2022-08-12T01:53:26.168Z,100553.66
2022-08-12T01:56:34.789Z,100546.31
2022-08-12T01:59:47.177Z,100544.81
2022-08-12T02:02:57.659Z,100543.16
2022-08-12T02:06:20.530Z,100540.00
2022-08-12T02:09:52.453Z,100535.09
2022-08-12T02:13:09.825Z,100522.72
2022-08-12T02:16:36.285Z,100525.41
2022-08-12T02:20:00.652Z,100530.47
2022-08-12T02:23:04.187Z,100530.47
2022-08-12T02:26:08.584Z,100523.41
2022-08-12T02:29:12.584Z,100522.69
2022-08-12T02:32:14.674Z,100526.47
2022-08-12T02:35:22.877Z,100524.66
2022-08-12T02:38:26.332Z,100522.81
2022-08-12T02:41:30.698Z,100519.28
2022-08-12T02:44:41.894Z,100530.03
2022-08-12T02:47:59.348Z,100525.91
2022-08-12T02:51:05.744Z,100526.88
2022-08-12T02:54:07.604Z,100521.09
2022-08-12T02:57:09.969Z,100518.41
2022-08-12T03:00:13.777Z,100525.31
2022-08-12T03:03:15.506Z,100526.88
2022-08-12T03:06:21.656Z,100519.66
2022-08-12T03:09:26.741Z,100525.03
2022-08-12T03:12:49.770Z,100526.13
2022-08-12T03:15:56.065Z,100522.13
2022-08-12T03:18:58.020Z,100523.25
2022-08-12T03:22:12.966Z,100523.75
2022-08-12T03:25:17.564Z,100525.31
2022-08-12T03:28:39.553Z,100520.91
2022-08-12T03:31:41.273Z,100518.97
2022-08-12T03:34:42.839Z,100516.91
2022-08-12T03:37:45.665Z,100523.06
2022-08-12T03:41:23.882Z,100521.22
2022-08-12T03:44:56.209Z,100521.13
2022-08-12T03:48:34.150Z,100520.75
2022-08-12T03:51:54.539Z,100526.81
2022-08-12T03:55:14.849Z,100536.59
2022-08-12T03:58:35.233Z,100535.03
2022-08-12T04:01:40.657Z,100545.91
2022-08-12T04:04:45.142Z,100543.97
2022-08-12T04:07:57.748Z,100546.50
2022-08-12T04:11:18.627Z,100557.16
2022-08-12T04:14:20.580Z,100556.66
2022-08-12T04:17:22.565Z,100552.50
2022-08-12T04:20:24.164Z,100562.63
2022-08-12T04:23:25.862Z,100562.25
2022-08-12T04:26:28.716Z,100565.69
2022-08-12T04:30:31.933Z,100574.47
2022-08-12T04:32:52.134Z,100567.16
2022-08-12T04:35:54.842Z,100567.63
2022-08-12T04:38:59.761Z,100563.00
2022-08-12T04:42:01.445Z,100573.63
2022-08-12T04:45:03.409Z,100570.84
2022-08-12T04:48:06.274Z,100571.53
2022-08-12T04:51:08.276Z,100575.97
2022-08-12T04:54:09.954Z,100577.31
2022-08-12T04:57:11.463Z,100577.31
2022-08-12T05:00:14.218Z,100573.38
2022-08-12T05:03:15.761Z,100573.16
2022-08-12T05:06:26.439Z,100583.75
2022-08-12T05:09:58.907Z,100576.06
2022-08-12T05:12:57.683Z,100582.19
2022-08-12T05:16:04.473Z,100581.44
2022-08-12T05:19:12.875Z,100588.66
2022-08-12T05:22:20.305Z,100583.50
2022-08-12T05:25:22.273Z,100592.56
2022-08-12T05:28:26.806Z,100587.91
2022-08-12T05:31:42.494Z,100598.03
2022-08-12T05:34:50.269Z,100600.97
2022-08-12T05:38:11.711Z,100598.75
2022-08-12T05:41:20.353Z,100604.41
2022-08-12T05:44:21.823Z,100608.47
2022-08-12T05:47:23.301Z,100614.78
2022-08-12T05:50:46.045Z,100618.09
2022-08-12T05:53:48.225Z,100614.78
2022-08-12T05:56:49.655Z,100621.00
2022-08-12T05:59:51.907Z,100617.34
2022-08-12T06:02:57.001Z,100625.25
2022-08-12T06:05:58.589Z,100624.00
2022-08-12T06:09:00.702Z,100624.50
2022-08-12T06:12:06.177Z,100633.03
2022-08-12T06:15:08.345Z,100626.13
2022-08-12T06:18:16.025Z,100621.72
2022-08-12T06:21:21.469Z,100633.16
2022-08-12T06:24:24.301Z,100640.44
2022-08-12T06:27:25.710Z,100632.78
2022-08-12T06:30:36.919Z,100639.94
2022-08-12T06:33:59.465Z,100637.84
2022-08-12T06:37:05.470Z,100629.25
2022-08-12T06:40:09.910Z,100637.56
2022-08-12T06:43:13.060Z,100644.00
2022-08-12T06:46:14.620Z,100647.31
2022-08-12T06:49:16.109Z,100638.50
2022-08-12T06:52:24.946Z,100636.25
2022-08-12T06:55:26.734Z,100631.94
2022-08-12T06:58:29.895Z,100629.47
2022-08-12T07:01:32.038Z,100621.69
2022-08-12T07:04:37.821Z,100624.09
2022-08-12T07:07:40.240Z,100631.56
2022-08-12T07:10:45.106Z,100620.75
2022-08-12T07:14:02.566Z,100621.84
2022-08-12T07:17:13.811Z,100622.84
2022-08-12T07:20:42.557Z,100618.91
2022-08-12T07:23:39.967Z,100618.63
2022-08-12T07:26:44.230Z,100629.44
2022-08-12T07:29:57.949Z,100626.31
2022-08-12T07:33:08.396Z,100627.03
2022-08-12T07:36:13.906Z,100627.34
2022-08-12T07:39:15.406Z,100628.78
2022-08-12T07:42:17.058Z,100636.31
2022-08-12T07:45:24.488Z,100632.88
2022-08-12T07:48:26.681Z,100634.88
2022-08-12T07:51:29.598Z,100634.56
2022-08-12T07:54:31.048Z,100636.00
2022-08-12T07:57:32.828Z,100632.91
2022-08-12T08:00:36.518Z,100630.88
2022-08-12T08:04:05.596Z,100635.41
2022-08-12T08:07:09.395Z,100630.88
2022-08-12T08:10:11.554Z,100627.19
2022-08-12T08:13:13.872Z,100622.97
2022-08-12T08:16:15.858Z,100630.47
2022-08-12T08:19:23.753Z,100636.97
2022-08-12T08:22:40.780Z,100621.00
2022-08-12T08:25:45.181Z,100638.97
2022-08-12T08:28:46.618Z,100624.84
2022-08-12T08:31:59.903Z,100631.59
2022-08-12T08:35:01.321Z,100620.56
2022-08-12T08:38:24.503Z,100623.78
2022-08-12T08:42:15.895Z,100618.97
2022-08-12T08:45:15.908Z,100620.88
2022-08-12T08:48:17.852Z,100612.47
2022-08-12T08:51:19.340Z,100616.72
2022-08-12T08:54:20.749Z,100615.44
2022-08-12T08:57:22.249Z,100606.81
2022-08-12T09:00:23.891Z,100609.44
2022-08-12T09:05:09.714Z,100599.75
2022-08-12T09:10:23.332Z,100598.84
2022-08-12T09:14:12.594Z,100595.53
2022-08-12T09:16:56.351Z,100595.31
2022-08-12T09:19:58.467Z,100594.03
2022-08-12T09:23:07.948Z,100589.78
2022-08-12T09:26:28.760Z,100597.56
2022-08-12T09:30:10.070Z,100586.06
2022-08-12T09:33:15.182Z,100575.69
2022-08-12T09:36:31.320Z,100578.25
2022-08-12T09:40:05.801Z,100570.00
2022-08-12T09:43:25.004Z,100566.31
2022-08-12T09:46:26.899Z,100574.97
2022-08-12T09:49:28.488Z,100562.91
2022-08-12T09:52:42.578Z,100573.47
2022-08-12T09:56:06.990Z,100561.84
2022-08-12T09:59:10.898Z,100554.94
2022-08-12T10:02:43.341Z,100563.25
2022-08-12T10:06:19.191Z,100554.41
2022-08-12T10:08:59.731Z,100546.63
2022-08-12T10:12:41.761Z,100539.69
2022-08-12T10:16:02.374Z,100530.47
2022-08-12T10:19:06.866Z,100538.47
2022-08-12T10:22:40.398Z,100521.44
2022-08-12T10:26:34.022Z,100520.59
2022-08-12T10:30:37.237Z,100531.31
2022-08-12T10:33:00.925Z,100524.00
2022-08-12T10:36:05.084Z,100509.72
2022-08-12T10:39:44.287Z,100516.53
2022-08-12T10:42:57.001Z,100517.44
2022-08-12T10:46:02.137Z,100516.75
2022-08-12T10:50:05.827Z,100501.09
2022-08-12T10:52:41.228Z,100516.00
2022-08-12T10:55:42.639Z,100508.22
2022-08-12T10:58:47.230Z,100503.13
2022-08-12T11:04:25.447Z,100500.00
2022-08-12T11:07:08.264Z,100485.09
2022-08-12T11:08:43.681Z,100477.53
2022-08-12T11:12:35.016Z,100487.88
2022-08-12T11:15:18.620Z,100466.69
2022-08-12T11:18:23.923Z,100474.44
2022-08-12T11:21:57.071Z,100476.44
2022-08-12T11:24:51.593Z,100481.75
2022-08-12T11:27:53.381Z,100471.78
2022-08-12T11:30:55.136Z,100465.56
2022-08-12T11:34:06.867Z,100456.69
2022-08-12T11:37:58.139Z,100464.31
2022-08-12T11:40:42.551Z,100459.69
2022-08-12T11:43:58.155Z,100468.56
2022-08-12T11:47:00.555Z,100466.13
2022-08-12T11:50:04.214Z,100447.84
2022-08-12T11:53:05.648Z,100447.69
2022-08-12T11:56:38.163Z,100454.38
2022-08-12T12:03:02.434Z,100445.66
2022-08-12T12:06:05.987Z,100446.91
2022-08-12T12:09:08.212Z,100433.25
2022-08-12T12:12:10.431Z,100427.63
2022-08-12T12:15:13.813Z,100431.66
2022-08-12T12:18:30.889Z,100428.25
2022-08-12T12:21:48.361Z,100428.84
2022-08-12T12:24:51.103Z,100425.44
2022-08-12T12:28:05.693Z,100420.84
2022-08-12T12:31:14.816Z,100419.28
2022-08-12T12:34:30.335Z,100410.97
2022-08-12T12:38:03.319Z,100410.78
2022-08-12T12:40:54.062Z,100415.22
2022-08-12T12:43:56.588Z,100417.13
2022-08-12T12:47:17.836Z,100415.88
2022-08-12T12:50:35.258Z,100400.09
2022-08-12T12:54:07.278Z,100393.88
2022-08-12T12:57:01.124Z,100383.72
2022-08-12T13:00:14.637Z,100387.22
2022-08-12T13:03:19.124Z,100381.38
2022-08-12T13:06:25.377Z,100389.47
2022-08-12T13:09:36.178Z,100391.38
2022-08-12T13:12:40.140Z,100370.97
2022-08-12T13:15:43.136Z,100377.28
2022-08-12T13:18:51.697Z,100376.66
2022-08-12T13:22:12.586Z,100382.69
2022-08-12T13:25:19.880Z,100381.25
2022-08-12T13:28:28.425Z,100370.34
2022-08-12T13:31:30.068Z,100373.50
2022-08-12T13:34:37.104Z,100378.09
2022-08-12T13:37:43.802Z,100372.25
2022-08-12T13:40:58.331Z,100367.81
2022-08-12T13:44:01.023Z,100367.72
2022-08-12T13:47:18.361Z,100371.03
2022-08-12T13:50:38.977Z,100365.81
2022-08-12T13:53:59.175Z,100360.31
2022-08-12T13:57:01.857Z,100356.03
2022-08-12T14:00:04.650Z,100369.66
2022-08-12T14:03:14.383Z,100363.53
2022-08-12T14:06:16.820Z,100361.81
2022-08-12T14:09:19.937Z,100358.97
2022-08-12T14:12:21.528Z,100354.31
2022-08-12T14:15:35.036Z,100345.47
2022-08-12T14:18:39.463Z,100341.75
2022-08-12T14:21:59.864Z,100340.28
2022-08-12T14:25:02.418Z,100347.59
2022-08-12T14:28:10.296Z,100336.28
2022-08-12T14:31:18.468Z,100330.50
2022-08-12T14:34:20.474Z,100329.81
2022-08-12T14:37:55.349Z,100329.69
2022-08-12T14:40:56.405Z,100329.06
2022-08-12T14:44:04.406Z,100323.84
2022-08-12T14:47:14.630Z,100325.00
2022-08-12T14:50:37.783Z,100318.06
2022-08-12T14:57:23.415Z,100325.81
2022-08-12T15:00:52.197Z,100322.09
2022-08-12T15:03:58.237Z,100318.56
2022-08-12T15:07:00.283Z,100316.63
2022-08-12T15:10:01.866Z,100326.06
2022-08-12T15:13:07.092Z,100320.22
2022-08-12T15:16:10.441Z,100323.75
2022-08-12T15:20:00.142Z,100329.22
2022-08-12T15:22:37.726Z,100328.94
2022-08-12T15:25:47.336Z,100319.25
2022-08-12T15:28:53.960Z,100318.59
2022-08-12T15:32:01.243Z,100315.28
2022-08-12T15:35:07.940Z,100323.72
2022-08-12T15:38:19.209Z,100315.88
2022-08-12T15:41:22.230Z,100316.97
2022-08-12T15:44:38.613Z,100319.31
2022-08-12T15:47:49.620Z,100314.06
2022-08-12T15:50:53.133Z,100310.78
2022-08-12T15:54:05.469Z,100315.69
2022-08-12T15:57:27.707Z,100309.59
2022-08-12T16:00:40.616Z,100310.84
2022-08-12T16:03:45.433Z,100307.84
2022-08-12T16:07:09.175Z,100312.19
2022-08-12T16:10:10.534Z,100308.28
2022-08-12T16:13:32.516Z,100305.34
2022-08-12T16:16:37.087Z,100304.50
2022-08-12T16:20:04.091Z,100296.97
2022-08-12T16:23:36.453Z,100302.53
2022-08-12T16:26:36.587Z,100300.28
2022-08-12T16:29:52.863Z,100294.81
2022-08-12T16:32:58.195Z,100300.19
2022-08-12T16:36:00.170Z,100299.72
2022-08-12T16:39:03.599Z,100302.16
2022-08-12T16:42:05.306Z,100296.81
2022-08-12T16:45:09.320Z,100299.06
2022-08-12T16:48:33.969Z,100287.25
2022-08-12T16:51:40.217Z,100288.81
2022-08-12T16:54:44.235Z,100295.25
2022-08-12T16:57:49.391Z,100288.44
2022-08-12T17:00:51.375Z,100292.66
2022-08-12T17:04:08.229Z,100283.56
2022-08-12T17:07:17.098Z,100290.88
2022-08-12T17:10:36.767Z,100292.31
2022-08-12T17:13:53.187Z,100292.59
2022-08-12T17:16:56.083Z,100291.28
2022-08-12T17:20:30.151Z,100293.31
2022-08-12T17:23:47.971Z,100288.59
2022-08-12T17:26:53.758Z,100281.44
2022-08-12T17:30:02.145Z,100281.72
2022-08-12T17:33:06.910Z,100283.66
2022-08-12T17:36:10.683Z,100287.50
2022-08-12T17:39:12.449Z,100285.25
2022-08-12T17:42:32.987Z,100280.19
2022-08-12T17:45:38.042Z,100286.38
2022-08-12T17:48:55.235Z,100285.50
2022-08-12T17:52:02.510Z,100293.00
2022-08-12T17:55:07.222Z,100297.13
2022-08-12T17:58:35.530Z,100291.81
2022-08-12T18:01:44.341Z,100296.28
2022-08-12T18:05:09.509Z,100289.50
2022-08-12T18:08:11.735Z,100298.09
2022-08-12T18:12:03.329Z,100299.25
2022-08-12T18:15:00.332Z,100303.00
2022-08-12T18:18:03.789Z,100301.88
2022-08-12T18:21:09.177Z,100310.19
2022-08-12T18:24:21.514Z,100310.75
2022-08-12T18:27:30.740Z,100309.41
2022-08-12T18:30:52.763Z,100322.84
2022-08-12T18:34:00.847Z,100319.81
2022-08-12T18:37:24.285Z,100314.38
2022-08-12T18:40:45.486Z,100327.47
2022-08-12T18:43:58.418Z,100324.81
2022-08-12T18:47:04.936Z,100319.19
2022-08-12T18:50:10.925Z,100327.66
2022-08-12T18:54:06.412Z,100327.03
2022-08-12T18:56:40.587Z,100329.41
2022-08-12T19:00:01.851Z,100327.75
2022-08-12T19:03:06.136Z,100331.81
2022-08-12T19:06:28.080Z,100334.16
2022-08-12T19:09:38.913Z,100337.22
2022-08-12T19:13:00.507Z,100342.97
2022-08-12T19:16:10.115Z,100338.03
2022-08-12T19:19:14.069Z,100346.63
2022-08-12T19:22:30.646Z,100345.97
2022-08-12T19:26:01.278Z,100340.88
2022-08-12T19:28:57.591Z,100344.25
2022-08-12T19:32:00.556Z,100347.59
2022-08-12T19:38:27.054Z,100341.47
2022-08-12T19:41:34.426Z,100334.00
2022-08-12T19:44:45.929Z,100337.03
2022-08-12T19:47:48.853Z,100334.28
2022-08-12T19:50:53.675Z,100340.72
2022-08-12T19:53:58.204Z,100344.94
2022-08-12T19:57:01.411Z,100350.47
2022-08-12T20:00:06.432Z,100359.94
2022-08-12T20:03:09.653Z,100364.59
2022-08-12T20:06:39.434Z,100365.75
2022-08-12T20:09:46.852Z,100370.97
2022-08-12T20:13:17.465Z,100367.19
2022-08-12T20:16:47.063Z,100365.47
2022-08-12T20:20:16.379Z,100371.13
2022-08-12T20:22:59.786Z,100365.66
2022-08-12T20:26:07.277Z,100369.59
2022-08-12T20:29:12.431Z,100365.53
2022-08-12T20:32:14.305Z,100365.44
2022-08-12T20:35:24.774Z,100373.00
2022-08-12T20:38:27.899Z,100373.00
2022-08-12T20:41:34.553Z,100369.06
2022-08-12T20:44:39.630Z,100375.09
2022-08-12T20:47:46.437Z,100370.91
2022-08-12T20:50:53.505Z,100369.53
2022-08-12T20:53:59.467Z,100373.56
2022-08-12T20:57:02.073Z,100375.69
2022-08-12T21:00:16.583Z,100378.72
2022-08-12T21:03:36.477Z,100382.75
2022-08-12T21:06:57.074Z,100389.06
2022-08-12T21:09:59.217Z,100388.53
2022-08-12T21:13:00.656Z,100391.66
2022-08-12T21:16:02.322Z,100389.38
2022-08-12T21:19:08.058Z,100392.28
2022-08-12T21:22:24.431Z,100394.44
2022-08-12T21:25:35.849Z,100400.31
2022-08-12T21:28:56.765Z,100397.22
2022-08-12T21:32:39.687Z,100399.06
2022-08-12T21:35:24.441Z,100396.69
2022-08-12T21:38:30.546Z,100401.56
2022-08-12T21:41:37.617Z,100400.56
2022-08-12T21:45:46.652Z,100392.78
2022-08-12T21:48:01.113Z,100406.69
2022-08-12T21:51:02.573Z,100404.28
2022-08-12T21:54:24.911Z,100410.13
2022-08-12T21:57:36.038Z,100412.81
2022-08-12T22:00:40.121Z,100416.97
2022-08-12T22:04:03.524Z,100418.09
2022-08-12T22:07:13.390Z,100418.41
2022-08-12T22:10:28.599Z,100420.50
2022-08-12T22:14:07.109Z,100421.53
2022-08-12T22:16:55.019Z,100418.84
2022-08-12T22:19:57.218Z,100418.66
2022-08-12T22:23:00.329Z,100421.25
2022-08-12T22:26:05.959Z,100424.13
2022-08-12T22:29:27.510Z,100424.53
2022-08-12T22:32:30.129Z,100433.47
2022-08-12T22:35:47.404Z,100436.59
2022-08-12T22:38:56.198Z,100430.66
2022-08-12T22:42:19.784Z,100423.56
2022-08-12T22:45:48.544Z,100423.41
2022-08-12T22:48:57.999Z,100430.50
2022-08-12T22:52:06.904Z,100426.09
2022-08-12T22:55:12.284Z,100424.13
2022-08-12T22:58:14.347Z,100426.41
2022-08-12T23:01:50.204Z,100422.00
2022-08-12T23:04:39.286Z,100421.53
2022-08-12T23:07:58.675Z,100411.75
2022-08-12T23:11:06.001Z,100419.97
2022-08-12T23:14:07.903Z,100408.47
2022-08-12T23:17:35.254Z,100416.13
2022-08-12T23:20:34.304Z,100415.84
2022-08-12T23:23:57.737Z,100414.13
2022-08-12T23:27:16.531Z,100410.44
2022-08-12T23:30:32.004Z,100409.53
2022-08-12T23:34:00.739Z,100403.25
2022-08-12T23:36:59.461Z,100405.50
2022-08-12T23:40:13.569Z,100398.41
2022-08-12T23:43:17.688Z,100393.97
2022-08-12T23:46:25.734Z,100393.00
2022-08-12T23:49:57.885Z,100396.03
2022-08-12T23:52:51.607Z,100396.75
2022-08-12T23:55:56.771Z,100404.84
2022-08-12T23:59:00.228Z,100410.22
